createdAt,value
2019-03-15T00:00:28.871Z,7.93
2019-03-15T00:01:38.818Z,7.91
2019-03-15T00:02:47.118Z,7.88
2019-03-15T00:03:55.138Z,7.90
2019-03-15T00:05:04.093Z,7.86
2019-03-15T00:06:12.258Z,7.85
2019-03-15T00:07:20.135Z,7.86
2019-03-15T00:08:27.980Z,7.85
2019-03-15T00:09:35.676Z,7.87
2019-03-15T00:10:43.501Z,7.86
2019-03-15T00:11:51.493Z,7.88
2019-03-15T00:12:59.499Z,7.86
2019-03-15T00:14:08.115Z,7.85
2019-03-15T00:15:16.496Z,7.82
2019-03-15T00:16:24.564Z,7.76
2019-03-15T00:17:32.614Z,7.69
2019-03-15T00:18:40.890Z,7.73
2019-03-15T00:19:48.952Z,7.75
2019-03-15T00:20:57.086Z,7.74
2019-03-15T00:22:05.469Z,7.77
2019-03-15T00:23:13.485Z,7.79
2019-03-15T00:24:21.446Z,7.78
2019-03-15T00:25:29.688Z,7.77
2019-03-15T00:26:37.778Z,7.77
2019-03-15T00:27:45.769Z,7.76
2019-03-15T00:28:53.969Z,7.76
2019-03-15T00:30:01.862Z,7.79
2019-03-15T00:31:09.864Z,7.78
2019-03-15T00:32:17.886Z,7.79
2019-03-15T00:33:25.854Z,7.81
2019-03-15T00:34:33.839Z,7.79
2019-03-15T00:35:41.833Z,7.77
2019-03-15T00:36:49.884Z,7.76
2019-03-15T00:37:57.924Z,7.78
2019-03-15T00:39:07.398Z,7.79
2019-03-15T00:40:16.745Z,7.77
2019-03-15T00:41:24.800Z,7.73
2019-03-15T00:42:32.849Z,7.72
2019-03-15T00:43:40.864Z,7.71
2019-03-15T00:44:48.800Z,7.72
2019-03-15T00:45:56.761Z,7.71
2019-03-15T00:47:04.591Z,7.72
2019-03-15T00:48:12.717Z,7.77
2019-03-15T00:49:20.471Z,7.77
2019-03-15T00:50:28.425Z,7.77
2019-03-15T00:51:36.511Z,7.73
2019-03-15T00:52:44.720Z,7.76
2019-03-15T00:53:54.333Z,7.76
2019-03-15T00:55:02.352Z,7.77
2019-03-15T00:56:11.530Z,7.79
2019-03-15T00:57:19.693Z,7.81
2019-03-15T00:58:27.572Z,7.81
2019-03-15T00:59:35.762Z,7.78
2019-03-15T01:00:43.647Z,7.78
2019-03-15T01:01:51.773Z,7.77
2019-03-15T01:02:59.597Z,7.77
2019-03-15T01:04:09.434Z,7.76
2019-03-15T01:05:18.177Z,7.77
2019-03-15T01:06:25.987Z,7.77
2019-03-15T01:07:33.962Z,7.80
2019-03-15T01:08:41.887Z,7.83
2019-03-15T01:09:49.687Z,7.84
2019-03-15T01:10:57.681Z,7.80
2019-03-15T01:12:05.617Z,7.79
2019-03-15T01:13:13.965Z,7.77
2019-03-15T01:14:22.092Z,7.77
2019-03-15T01:15:30.236Z,7.77
2019-03-15T01:16:38.301Z,7.77
2019-03-15T01:17:46.152Z,7.79
2019-03-15T01:18:54.259Z,7.79
2019-03-15T01:20:02.840Z,7.79
2019-03-15T01:21:10.957Z,7.77
2019-03-15T01:22:19.071Z,7.79
2019-03-15T01:23:26.890Z,7.82
2019-03-15T01:24:34.691Z,7.85
2019-03-15T01:25:42.498Z,7.84
2019-03-15T01:26:50.284Z,7.82
2019-03-15T01:27:58.490Z,7.81
2019-03-15T01:29:06.480Z,7.82
2019-03-15T01:30:14.470Z,7.80
2019-03-15T01:31:22.308Z,7.83
2019-03-15T01:32:30.244Z,7.86
2019-03-15T01:33:38.029Z,7.86
2019-03-15T01:34:45.937Z,7.83
2019-03-15T01:35:53.853Z,7.81
2019-03-15T01:37:01.749Z,7.77
2019-03-15T01:38:09.697Z,7.81
2019-03-15T01:39:17.713Z,7.82
2019-03-15T01:40:25.594Z,7.82
2019-03-15T01:41:33.483Z,7.84
2019-03-15T01:42:41.271Z,7.85
2019-03-15T01:43:49.238Z,7.83
2019-03-15T01:44:57.394Z,7.82
2019-03-15T01:46:05.300Z,7.82
2019-03-15T01:47:13.502Z,7.80
2019-03-15T01:48:21.681Z,7.76
2019-03-15T01:49:29.886Z,7.75
2019-03-15T01:50:37.849Z,7.80
2019-03-15T01:51:45.663Z,7.85
2019-03-15T01:52:54.008Z,7.91
2019-03-15T01:54:01.761Z,7.91
2019-03-15T01:55:10.158Z,7.89
2019-03-15T01:56:18.052Z,7.90
2019-03-15T01:57:25.863Z,7.86
2019-03-15T01:58:33.807Z,7.88
2019-03-15T01:59:42.014Z,7.88
2019-03-15T02:00:49.716Z,7.91
2019-03-15T02:01:57.310Z,7.93
2019-03-15T02:03:05.402Z,7.95
2019-03-15T02:04:13.196Z,7.95
2019-03-15T02:05:21.178Z,7.95
2019-03-15T02:06:29.186Z,7.94
2019-03-15T02:07:37.276Z,7.94
2019-03-15T02:08:45.187Z,7.92
2019-03-15T02:09:53.169Z,7.90
2019-03-15T02:11:01.254Z,7.96
2019-03-15T02:12:09.249Z,7.95
2019-03-15T02:13:16.999Z,8.00
2019-03-15T02:14:25.031Z,7.99
2019-03-15T02:15:32.945Z,7.95
2019-03-15T02:16:40.974Z,7.94
2019-03-15T02:17:49.072Z,7.92
2019-03-15T02:18:57.018Z,7.91
2019-03-15T02:20:07.384Z,7.90
2019-03-15T02:21:15.200Z,7.87
2019-03-15T02:22:23.244Z,7.89
2019-03-15T02:23:31.048Z,7.88
2019-03-15T02:24:38.927Z,7.86
2019-03-15T02:25:47.024Z,7.86
2019-03-15T02:26:54.822Z,7.89
2019-03-15T02:28:02.958Z,7.89
2019-03-15T02:29:11.107Z,7.90
2019-03-15T02:30:19.210Z,7.90
2019-03-15T02:31:27.204Z,7.88
2019-03-15T02:32:35.025Z,7.85
2019-03-15T02:33:42.814Z,7.86
2019-03-15T02:34:50.678Z,7.89
2019-03-15T02:35:58.557Z,7.91
2019-03-15T02:37:07.003Z,7.93
2019-03-15T02:38:15.312Z,7.93
2019-03-15T02:39:23.271Z,7.92
2019-03-15T02:40:30.955Z,7.93
2019-03-15T02:41:38.931Z,7.94
2019-03-15T02:42:46.836Z,7.92
2019-03-15T02:43:54.886Z,7.85
2019-03-15T02:45:02.858Z,7.83
2019-03-15T02:46:10.712Z,7.81
2019-03-15T02:47:19.432Z,7.76
2019-03-15T02:48:27.736Z,7.76
2019-03-15T02:49:36.299Z,7.74
2019-03-15T02:50:44.427Z,7.76
2019-03-15T02:51:52.222Z,7.73
2019-03-15T02:53:00.125Z,7.76
2019-03-15T02:54:07.887Z,7.73
2019-03-15T02:55:15.956Z,7.70
2019-03-15T02:56:24.302Z,7.69
2019-03-15T02:57:32.253Z,7.68
2019-03-15T02:58:40.288Z,7.70
2019-03-15T02:59:48.302Z,7.70
2019-03-15T03:00:56.247Z,7.73
2019-03-15T03:02:04.285Z,7.75
2019-03-15T03:03:12.111Z,7.76
2019-03-15T03:04:20.222Z,7.70
2019-03-15T03:05:28.406Z,7.70
2019-03-15T03:06:36.400Z,7.70
2019-03-15T03:07:44.934Z,7.66
2019-03-15T03:08:53.020Z,7.67
2019-03-15T03:10:01.733Z,7.74
2019-03-15T03:11:10.343Z,7.70
2019-03-15T03:12:18.718Z,7.68
2019-03-15T03:13:26.554Z,7.68
2019-03-15T03:14:34.428Z,7.68
2019-03-15T03:15:42.521Z,7.65
2019-03-15T03:16:50.455Z,7.65
2019-03-15T03:17:58.566Z,7.65
2019-03-15T03:19:06.557Z,7.62
2019-03-15T03:20:14.508Z,7.61
2019-03-15T03:21:22.696Z,7.62
2019-03-15T03:22:30.657Z,7.60
2019-03-15T03:23:38.994Z,7.63
2019-03-15T03:24:47.192Z,7.63
2019-03-15T03:25:55.650Z,7.61
2019-03-15T03:27:03.397Z,7.55
2019-03-15T03:28:11.289Z,7.50
2019-03-15T03:29:19.945Z,7.45
2019-03-15T03:30:28.221Z,7.40
2019-03-15T03:31:36.024Z,7.43
2019-03-15T03:32:44.522Z,7.49
2019-03-15T03:33:52.772Z,7.46
2019-03-15T03:35:00.968Z,7.45
2019-03-15T03:36:09.054Z,7.46
2019-03-15T03:37:17.141Z,7.44
2019-03-15T03:38:25.280Z,7.41
2019-03-15T03:39:34.404Z,7.33
2019-03-15T03:40:42.605Z,7.31
2019-03-15T03:41:50.507Z,7.29
2019-03-15T03:42:58.279Z,7.31
2019-03-15T03:44:06.432Z,7.29
2019-03-15T03:45:14.396Z,7.28
2019-03-15T03:46:22.410Z,7.25
2019-03-15T03:47:32.692Z,7.23
2019-03-15T03:48:40.171Z,7.19
2019-03-15T03:49:48.010Z,7.21
2019-03-15T03:50:55.999Z,7.21
2019-03-15T03:52:03.849Z,7.15
2019-03-15T03:53:11.826Z,7.10
2019-03-15T03:54:19.840Z,7.07
2019-03-15T03:55:27.988Z,6.99
2019-03-15T03:56:35.852Z,6.96
2019-03-15T03:57:43.675Z,6.96
2019-03-15T03:58:51.634Z,6.97
2019-03-15T03:59:59.737Z,6.97
2019-03-15T04:01:07.831Z,6.96
2019-03-15T04:02:16.305Z,6.88
2019-03-15T04:03:24.702Z,6.88
2019-03-15T04:04:32.799Z,6.90
2019-03-15T04:05:40.814Z,6.89
2019-03-15T04:06:48.708Z,6.87
2019-03-15T04:07:56.985Z,6.83
2019-03-15T04:09:06.722Z,6.80
2019-03-15T04:10:14.919Z,6.81
2019-03-15T04:11:23.173Z,6.80
2019-03-15T04:12:31.319Z,6.79
2019-03-15T04:13:39.377Z,6.78
2019-03-15T04:14:47.512Z,6.77
2019-03-15T04:15:55.696Z,6.77
2019-03-15T04:17:03.809Z,6.74
2019-03-15T04:18:11.509Z,6.76
2019-03-15T04:19:19.589Z,6.71
2019-03-15T04:20:27.504Z,6.72
2019-03-15T04:21:35.389Z,6.67
2019-03-15T04:22:43.445Z,6.67
2019-03-15T04:23:51.278Z,6.67
2019-03-15T04:24:59.567Z,6.69
2019-03-15T04:26:07.409Z,6.72
2019-03-15T04:27:15.353Z,6.73
2019-03-15T04:28:23.574Z,6.68
2019-03-15T04:29:31.729Z,6.68
2019-03-15T04:30:39.534Z,6.67
2019-03-15T04:31:47.748Z,6.68
2019-03-15T04:32:55.746Z,6.66
2019-03-15T04:34:03.827Z,6.60
2019-03-15T04:35:12.029Z,6.51
2019-03-15T04:36:19.916Z,6.51
2019-03-15T04:37:28.220Z,6.50
2019-03-15T04:38:36.319Z,6.49
2019-03-15T04:39:44.743Z,6.50
2019-03-15T04:40:53.235Z,6.45
2019-03-15T04:42:01.384Z,6.45
2019-03-15T04:43:09.521Z,6.39
2019-03-15T04:44:17.747Z,6.42
2019-03-15T04:45:26.229Z,6.45
2019-03-15T04:46:34.332Z,6.43
2019-03-15T04:47:43.636Z,6.41
2019-03-15T04:48:52.109Z,6.42
2019-03-15T04:49:59.954Z,6.43
2019-03-15T04:51:08.376Z,6.44
2019-03-15T04:52:16.457Z,6.45
2019-03-15T04:53:24.342Z,6.45
2019-03-15T04:54:32.352Z,6.43
2019-03-15T04:55:40.332Z,6.42
2019-03-15T04:56:48.290Z,6.44
2019-03-15T04:57:56.180Z,6.42
2019-03-15T04:59:04.241Z,6.45
2019-03-15T05:00:15.483Z,6.43
2019-03-15T05:01:23.233Z,6.40
2019-03-15T05:02:31.180Z,6.42
2019-03-15T05:03:39.239Z,6.40
2019-03-15T05:04:47.674Z,6.36
2019-03-15T05:06:02.973Z,6.39
2019-03-15T05:07:07.145Z,6.34
2019-03-15T05:08:15.018Z,6.31
2019-03-15T05:09:22.925Z,6.35
2019-03-15T05:10:31.124Z,6.30
2019-03-15T05:11:39.128Z,6.32
2019-03-15T05:12:47.038Z,6.24
2019-03-15T05:13:55.014Z,6.28
2019-03-15T05:15:03.181Z,6.26
2019-03-15T05:16:11.310Z,6.22
2019-03-15T05:17:19.247Z,6.17
2019-03-15T05:18:26.979Z,6.18
2019-03-15T05:19:35.221Z,6.19
2019-03-15T05:20:43.181Z,6.18
2019-03-15T05:21:51.380Z,6.21
2019-03-15T05:22:59.435Z,6.19
2019-03-15T05:24:07.452Z,6.13
2019-03-15T05:25:15.468Z,6.13
2019-03-15T05:26:23.282Z,6.07
2019-03-15T05:27:31.478Z,6.06
2019-03-15T05:28:39.442Z,6.12
2019-03-15T05:29:47.570Z,6.11
2019-03-15T05:30:55.552Z,6.12
2019-03-15T05:32:03.433Z,6.13
2019-03-15T05:33:11.404Z,6.16
2019-03-15T05:34:19.379Z,6.10
2019-03-15T05:35:27.208Z,6.08
2019-03-15T05:36:35.610Z,6.09
2019-03-15T05:37:43.593Z,6.10
2019-03-15T05:38:51.497Z,6.13
2019-03-15T05:39:59.387Z,6.14
2019-03-15T05:41:07.044Z,6.11
2019-03-15T05:42:15.063Z,6.10
2019-03-15T05:43:23.046Z,6.10
2019-03-15T05:44:31.430Z,6.10
2019-03-15T05:45:39.424Z,6.07
2019-03-15T05:46:47.368Z,6.06
2019-03-15T05:47:56.605Z,6.03
2019-03-15T05:49:04.738Z,6.07
2019-03-15T05:50:14.081Z,6.06
2019-03-15T05:51:22.127Z,6.06
2019-03-15T05:52:30.208Z,6.06
2019-03-15T05:53:38.526Z,6.07
2019-03-15T05:54:46.630Z,6.11
2019-03-15T05:55:55.008Z,6.10
2019-03-15T05:57:02.896Z,6.10
2019-03-15T05:58:10.956Z,6.13
2019-03-15T05:59:19.514Z,6.12
2019-03-15T06:00:27.692Z,6.11
2019-03-15T06:01:35.956Z,6.12
2019-03-15T06:02:43.994Z,6.11
2019-03-15T06:03:52.003Z,6.12
2019-03-15T06:04:59.981Z,6.11
2019-03-15T06:06:07.953Z,6.12
2019-03-15T06:07:16.347Z,6.12
2019-03-15T06:08:27.471Z,6.14
2019-03-15T06:09:34.521Z,6.14
2019-03-15T06:10:42.426Z,6.15
2019-03-15T06:11:50.725Z,6.15
2019-03-15T06:12:58.771Z,6.14
2019-03-15T06:14:07.223Z,6.15
2019-03-15T06:15:15.822Z,6.19
2019-03-15T06:16:24.131Z,6.19
2019-03-15T06:17:32.118Z,6.20
2019-03-15T06:18:40.525Z,6.20
2019-03-15T06:19:48.443Z,6.22
2019-03-15T06:20:56.531Z,6.23
2019-03-15T06:22:04.910Z,6.28
2019-03-15T06:23:12.804Z,6.25
2019-03-15T06:24:21.640Z,6.26
2019-03-15T06:25:29.927Z,6.29
2019-03-15T06:26:39.268Z,6.29
2019-03-15T06:27:47.331Z,6.30
2019-03-15T06:28:55.541Z,6.28
2019-03-15T06:30:04.560Z,6.28
2019-03-15T06:31:12.975Z,6.30
2019-03-15T06:32:20.847Z,6.29
2019-03-15T06:33:29.046Z,6.31
2019-03-15T06:34:39.416Z,6.33
2019-03-15T06:35:46.782Z,6.34
2019-03-15T06:36:54.794Z,6.33
2019-03-15T06:38:03.235Z,6.36
2019-03-15T06:39:11.137Z,6.36
2019-03-15T06:40:19.397Z,6.36
2019-03-15T06:41:28.208Z,6.37
2019-03-15T06:42:36.507Z,6.39
2019-03-15T06:43:44.447Z,6.39
2019-03-15T06:44:57.934Z,6.42
2019-03-15T06:46:02.304Z,6.44
2019-03-15T06:47:10.541Z,6.46
2019-03-15T06:48:18.321Z,6.48
2019-03-15T06:49:26.681Z,6.48
2019-03-15T06:50:35.069Z,6.50
2019-03-15T06:51:43.224Z,6.53
2019-03-15T06:52:51.595Z,6.55
2019-03-15T06:54:10.926Z,6.59
2019-03-15T06:55:10.378Z,6.60
2019-03-15T06:56:18.992Z,6.62
2019-03-15T06:57:27.133Z,6.68
2019-03-15T06:58:37.157Z,6.69
2019-03-15T06:59:45.223Z,6.67
2019-03-15T07:00:54.704Z,6.67
2019-03-15T07:02:03.090Z,6.67
2019-03-15T07:03:11.505Z,6.64
2019-03-15T07:04:19.560Z,6.65
2019-03-15T07:05:27.854Z,6.69
2019-03-15T07:06:35.954Z,6.69
2019-03-15T07:07:44.265Z,6.69
2019-03-15T07:08:52.154Z,6.69
2019-03-15T07:10:00.448Z,6.68
2019-03-15T07:11:08.495Z,6.67
2019-03-15T07:12:17.636Z,6.68
2019-03-15T07:13:25.748Z,6.67
2019-03-15T07:14:33.983Z,6.70
2019-03-15T07:15:44.350Z,6.71
2019-03-15T07:16:51.903Z,6.73
2019-03-15T07:18:00.048Z,6.75
2019-03-15T07:19:09.156Z,6.78
2019-03-15T07:20:18.291Z,6.80
2019-03-15T07:21:26.573Z,6.81
2019-03-15T07:22:34.532Z,6.80
2019-03-15T07:23:42.626Z,6.85
2019-03-15T07:24:50.968Z,6.85
2019-03-15T07:26:15.585Z,6.81
2019-03-15T07:27:42.692Z,6.79
2019-03-15T07:29:18.749Z,6.80
2019-03-15T07:30:47.041Z,6.75
2019-03-15T07:32:24.113Z,6.71
2019-03-15T07:33:42.316Z,6.72
2019-03-15T07:34:54.137Z,6.70
2019-03-15T07:36:02.077Z,6.68
2019-03-15T07:37:10.716Z,6.68
2019-03-15T07:38:18.663Z,6.66
2019-03-15T07:39:26.923Z,6.68
2019-03-15T07:40:35.162Z,6.67
2019-03-15T07:41:43.126Z,6.65
2019-03-15T07:42:51.031Z,6.67
2019-03-15T07:43:59.471Z,6.71
2019-03-15T07:45:12.906Z,6.73
2019-03-15T07:46:20.989Z,6.72
2019-03-15T07:47:28.721Z,6.76
2019-03-15T07:48:36.839Z,6.75
2019-03-15T07:49:44.934Z,6.77
2019-03-15T07:50:52.895Z,6.79
2019-03-15T07:52:03.788Z,6.80
2019-03-15T07:53:11.333Z,6.81
2019-03-15T07:54:19.667Z,6.87
2019-03-15T07:55:27.966Z,6.88
2019-03-15T07:56:36.237Z,6.93
2019-03-15T07:57:44.153Z,6.97
2019-03-15T07:58:52.209Z,7.00
2019-03-15T08:00:00.384Z,7.04
2019-03-15T08:01:08.367Z,7.09
2019-03-15T08:02:16.600Z,7.12
2019-03-15T08:03:24.700Z,7.17
2019-03-15T08:04:32.486Z,7.20
2019-03-15T08:05:40.773Z,7.28
2019-03-15T08:06:49.100Z,7.35
2019-03-15T08:07:57.107Z,7.39
2019-03-15T08:09:07.271Z,7.42
2019-03-15T08:10:16.167Z,7.44
2019-03-15T08:11:24.151Z,7.52
2019-03-15T08:12:32.445Z,7.53
2019-03-15T08:13:40.526Z,7.57
2019-03-15T08:14:48.454Z,7.64
2019-03-15T08:15:56.445Z,7.67
2019-03-15T08:17:04.529Z,7.73
2019-03-15T08:18:12.588Z,7.78
2019-03-15T08:19:21.944Z,7.78
2019-03-15T08:20:30.001Z,7.81
2019-03-15T08:21:38.159Z,7.82
2019-03-15T08:22:46.546Z,7.85
2019-03-15T08:23:54.776Z,7.88
2019-03-15T08:25:02.856Z,7.91
2019-03-15T08:26:11.071Z,7.93
2019-03-15T08:27:19.207Z,7.93
2019-03-15T08:28:27.307Z,7.94
2019-03-15T08:29:36.540Z,7.92
2019-03-15T08:30:44.807Z,7.92
2019-03-15T08:31:52.966Z,7.95
2019-03-15T08:33:10.107Z,7.94
2019-03-15T08:34:11.021Z,7.93
2019-03-15T08:35:19.293Z,7.91
2019-03-15T08:36:27.500Z,7.88
2019-03-15T08:37:35.800Z,7.84
2019-03-15T08:38:47.760Z,7.82
2019-03-15T08:39:53.649Z,7.80
2019-03-15T08:41:01.939Z,7.83
2019-03-15T08:42:09.977Z,7.82
2019-03-15T08:43:18.327Z,7.81
2019-03-15T08:44:26.809Z,7.85
2019-03-15T08:45:35.051Z,7.82
2019-03-15T08:46:43.037Z,7.82
2019-03-15T08:47:51.387Z,7.84
2019-03-15T08:48:59.817Z,7.85
2019-03-15T08:50:14.998Z,7.85
2019-03-15T08:51:22.240Z,7.88
2019-03-15T08:52:30.235Z,7.88
2019-03-15T08:53:38.279Z,7.90
2019-03-15T08:54:46.998Z,7.90
2019-03-15T08:55:54.990Z,7.94
2019-03-15T08:57:03.213Z,7.96
2019-03-15T08:58:15.355Z,7.98
2019-03-15T08:59:21.224Z,8.04
2019-03-15T09:00:29.724Z,8.04
2019-03-15T09:01:38.061Z,8.04
2019-03-15T09:02:46.457Z,8.07
2019-03-15T09:03:54.517Z,8.11
2019-03-15T09:05:02.783Z,8.16
2019-03-15T09:06:10.939Z,8.21
2019-03-15T09:07:19.224Z,8.24
2019-03-15T09:08:27.521Z,8.29
2019-03-15T09:09:36.066Z,8.27
2019-03-15T09:10:44.536Z,8.25
2019-03-15T09:11:52.628Z,8.24
2019-03-15T09:13:00.836Z,8.23
2019-03-15T09:14:08.984Z,8.21
2019-03-15T09:15:17.395Z,8.25
2019-03-15T09:16:25.485Z,8.21
2019-03-15T09:17:33.683Z,8.20
2019-03-15T09:18:41.778Z,8.18
2019-03-15T09:19:49.932Z,8.19
2019-03-15T09:20:58.224Z,8.18
2019-03-15T09:22:06.470Z,8.21
2019-03-15T09:23:15.039Z,8.24
2019-03-15T09:24:23.143Z,8.28
2019-03-15T09:25:31.429Z,8.32
2019-03-15T09:26:39.391Z,8.38
2019-03-15T09:27:47.587Z,8.39
2019-03-15T09:28:55.704Z,8.43
2019-03-15T09:30:04.062Z,8.48
2019-03-15T09:31:11.848Z,8.52
2019-03-15T09:32:20.019Z,8.61
2019-03-15T09:33:28.064Z,8.64
2019-03-15T09:34:35.913Z,8.69
2019-03-15T09:35:44.290Z,8.74
2019-03-15T09:36:52.635Z,8.80
2019-03-15T09:38:00.835Z,8.82
2019-03-15T09:39:09.084Z,8.91
2019-03-15T09:40:20.288Z,9.00
2019-03-15T09:41:33.504Z,9.07
2019-03-15T09:42:38.169Z,9.13
2019-03-15T09:43:46.622Z,9.17
2019-03-15T09:44:54.468Z,9.22
2019-03-15T09:46:02.542Z,9.24
2019-03-15T09:47:10.908Z,9.29
2019-03-15T09:48:19.556Z,9.29
2019-03-15T09:49:27.612Z,9.27
2019-03-15T09:50:50.088Z,9.27
2019-03-15T09:51:45.330Z,9.27
2019-03-15T09:52:53.492Z,9.29
2019-03-15T09:54:01.522Z,9.28
2019-03-15T09:55:11.949Z,9.26
2019-03-15T09:56:20.062Z,9.27
2019-03-15T09:57:28.190Z,9.23
2019-03-15T09:58:36.178Z,9.23
2019-03-15T09:59:44.414Z,9.21
2019-03-15T10:00:52.476Z,9.18
2019-03-15T10:02:00.790Z,9.15
2019-03-15T10:03:21.586Z,9.16
2019-03-15T10:04:19.394Z,9.13
2019-03-15T10:05:27.433Z,9.13
2019-03-15T10:06:35.640Z,9.17
2019-03-15T10:07:44.122Z,9.18
2019-03-15T10:08:52.545Z,9.18
2019-03-15T10:10:12.957Z,9.22
2019-03-15T10:11:10.758Z,9.25
2019-03-15T10:12:19.153Z,9.28
2019-03-15T10:13:27.228Z,9.36
2019-03-15T10:14:35.185Z,9.38
2019-03-15T10:15:43.109Z,9.41
2019-03-15T10:16:51.548Z,9.41
2019-03-15T10:17:59.562Z,9.42
2019-03-15T10:19:07.763Z,9.46
2019-03-15T10:20:16.508Z,9.46
2019-03-15T10:21:24.545Z,9.51
2019-03-15T10:22:33.076Z,9.54
2019-03-15T10:23:40.953Z,9.50
2019-03-15T10:24:49.088Z,9.48
2019-03-15T10:25:56.957Z,9.45
2019-03-15T10:27:05.361Z,9.42
2019-03-15T10:28:13.302Z,9.42
2019-03-15T10:29:21.316Z,9.44
2019-03-15T10:30:29.782Z,9.47
2019-03-15T10:31:37.734Z,9.50
2019-03-15T10:32:45.848Z,9.54
2019-03-15T10:33:54.066Z,9.58
2019-03-15T10:35:02.500Z,9.60
2019-03-15T10:36:10.819Z,9.62
2019-03-15T10:37:19.276Z,9.63
2019-03-15T10:38:27.478Z,9.64
2019-03-15T10:39:35.369Z,9.69
2019-03-15T10:40:43.705Z,9.71
2019-03-15T10:41:51.667Z,9.78
2019-03-15T10:42:59.621Z,9.76
2019-03-15T10:44:07.854Z,9.70
2019-03-15T10:45:15.975Z,9.63
2019-03-15T10:46:24.165Z,9.64
2019-03-15T10:47:32.343Z,9.66
2019-03-15T10:48:40.307Z,9.77
2019-03-15T10:49:48.338Z,9.88
2019-03-15T10:50:56.532Z,10.04
2019-03-15T10:52:04.611Z,10.18
2019-03-15T10:53:12.498Z,10.32
2019-03-15T10:54:20.624Z,10.43
2019-03-15T10:55:28.705Z,10.49
2019-03-15T10:56:36.804Z,10.57
2019-03-15T10:57:44.659Z,10.59
2019-03-15T10:58:52.911Z,10.62
2019-03-15T11:00:01.099Z,10.62
2019-03-15T11:01:09.189Z,10.66
2019-03-15T11:02:17.579Z,10.71
2019-03-15T11:03:25.879Z,10.72
2019-03-15T11:04:33.808Z,10.74
2019-03-15T11:05:41.782Z,10.72
2019-03-15T11:06:49.872Z,10.67
2019-03-15T11:07:57.982Z,10.62
2019-03-15T11:09:07.975Z,10.57
2019-03-15T11:10:16.047Z,10.49
2019-03-15T11:11:24.233Z,10.44
2019-03-15T11:12:32.439Z,10.35
2019-03-15T11:13:40.815Z,10.30
2019-03-15T11:14:48.799Z,10.32
2019-03-15T11:15:56.818Z,10.17
2019-03-15T11:17:04.907Z,10.00
2019-03-15T11:18:13.205Z,9.76
2019-03-15T11:19:21.326Z,9.65
2019-03-15T11:20:29.403Z,9.59
2019-03-15T11:21:37.714Z,9.50
2019-03-15T11:22:45.709Z,9.40
2019-03-15T11:23:53.796Z,9.37
2019-03-15T11:25:01.690Z,9.31
2019-03-15T11:26:13.770Z,9.18
2019-03-15T11:27:19.474Z,9.14
2019-03-15T11:28:27.475Z,9.09
2019-03-15T11:29:35.470Z,9.16
2019-03-15T11:30:43.409Z,9.07
2019-03-15T11:31:51.379Z,9.01
2019-03-15T11:32:59.799Z,8.97
2019-03-15T11:34:07.617Z,8.89
2019-03-15T11:35:15.640Z,8.84
2019-03-15T11:36:23.797Z,8.82
2019-03-15T11:37:31.988Z,8.78
2019-03-15T11:38:39.920Z,8.78
2019-03-15T11:39:47.973Z,8.79
2019-03-15T11:40:55.944Z,8.78
2019-03-15T11:42:03.960Z,8.80
2019-03-15T11:43:11.977Z,8.80
2019-03-15T11:44:20.232Z,8.81
2019-03-15T11:45:28.562Z,8.81
2019-03-15T11:46:36.857Z,8.81
2019-03-15T11:48:02.046Z,8.81
2019-03-15T11:48:54.599Z,8.80
2019-03-15T11:50:02.587Z,8.81
2019-03-15T11:51:10.799Z,8.84
2019-03-15T11:52:18.907Z,8.87
2019-03-15T11:53:26.718Z,8.92
2019-03-15T11:54:34.867Z,8.94
2019-03-15T11:55:42.859Z,8.98
2019-03-15T11:56:51.054Z,9.02
2019-03-15T11:57:59.096Z,9.03
2019-03-15T11:59:07.172Z,9.05
2019-03-15T12:00:21.758Z,9.06
2019-03-15T12:01:29.722Z,9.07
2019-03-15T12:02:37.844Z,9.05
2019-03-15T12:03:53.064Z,9.07
2019-03-15T12:04:55.663Z,9.13
2019-03-15T12:06:03.672Z,9.11
2019-03-15T12:07:11.927Z,9.13
2019-03-15T12:08:19.824Z,9.15
2019-03-15T12:09:27.723Z,9.13
2019-03-15T12:10:35.907Z,9.11
2019-03-15T12:11:43.972Z,9.03
2019-03-15T12:12:52.196Z,8.99
2019-03-15T12:14:00.107Z,8.97
2019-03-15T12:15:11.840Z,8.96
2019-03-15T12:16:19.803Z,8.94
2019-03-15T12:17:27.827Z,8.98
2019-03-15T12:18:35.867Z,8.96
2019-03-15T12:19:44.928Z,8.96
2019-03-15T12:20:53.317Z,8.97
2019-03-15T12:22:06.431Z,8.99
2019-03-15T12:23:11.123Z,9.00
2019-03-15T12:24:19.527Z,9.01
2019-03-15T12:25:27.641Z,8.98
2019-03-15T12:26:40.463Z,9.07
2019-03-15T12:27:45.589Z,9.10
2019-03-15T12:28:53.752Z,9.11
2019-03-15T12:30:01.960Z,9.15
2019-03-15T12:31:09.977Z,9.12
2019-03-15T12:32:18.170Z,9.14
2019-03-15T12:33:26.039Z,9.20
2019-03-15T12:34:33.967Z,9.24
2019-03-15T12:35:42.030Z,9.31
2019-03-15T12:36:50.026Z,9.41
2019-03-15T12:37:57.968Z,9.44
2019-03-15T12:39:08.149Z,9.49
2019-03-15T12:40:19.742Z,9.56
2019-03-15T12:41:27.893Z,9.61
2019-03-15T12:42:36.343Z,9.62
2019-03-15T12:43:44.776Z,9.64
2019-03-15T12:44:53.029Z,9.64
2019-03-15T12:46:01.128Z,9.66
2019-03-15T12:47:09.118Z,9.61
2019-03-15T12:48:16.861Z,9.60
2019-03-15T12:49:25.743Z,9.57
2019-03-15T12:50:33.966Z,9.59
2019-03-15T12:51:42.414Z,9.54
2019-03-15T12:52:50.754Z,9.50
2019-03-15T12:53:58.746Z,9.48
2019-03-15T12:55:10.242Z,9.46
2019-03-15T12:56:18.637Z,9.45
2019-03-15T12:57:26.621Z,9.50
2019-03-15T12:58:34.613Z,9.56
2019-03-15T12:59:42.685Z,9.61
2019-03-15T13:00:50.581Z,9.64
2019-03-15T13:01:58.479Z,9.65
2019-03-15T13:03:06.591Z,9.64
2019-03-15T13:04:14.689Z,9.67
2019-03-15T13:05:23.273Z,9.71
2019-03-15T13:06:31.479Z,9.75
2019-03-15T13:07:39.738Z,9.83
2019-03-15T13:08:48.396Z,9.88
2019-03-15T13:09:56.456Z,9.99
2019-03-15T13:11:04.780Z,10.04
2019-03-15T13:12:12.898Z,10.05
2019-03-15T13:13:21.291Z,10.05
2019-03-15T13:14:29.240Z,10.04
2019-03-15T13:15:37.389Z,10.03
2019-03-15T13:16:45.726Z,10.02
2019-03-15T13:17:53.976Z,9.97
2019-03-15T13:19:02.301Z,9.95
2019-03-15T13:20:15.655Z,9.93
2019-03-15T13:21:24.024Z,9.91
2019-03-15T13:22:32.350Z,9.84
2019-03-15T13:23:40.260Z,9.80
2019-03-15T13:24:48.235Z,9.82
2019-03-15T13:25:56.196Z,9.77
2019-03-15T13:27:07.666Z,9.74
2019-03-15T13:28:13.880Z,9.70
2019-03-15T13:29:22.249Z,9.65
2019-03-15T13:30:30.011Z,9.66
2019-03-15T13:31:38.093Z,9.58
2019-03-15T13:32:46.418Z,9.54
2019-03-15T13:33:54.817Z,9.54
2019-03-15T13:35:02.944Z,9.50
2019-03-15T13:36:10.857Z,9.54
2019-03-15T13:37:18.855Z,9.57
2019-03-15T13:38:26.973Z,9.58
2019-03-15T13:39:35.021Z,9.56
2019-03-15T13:40:42.947Z,9.58
2019-03-15T13:41:50.902Z,9.60
2019-03-15T13:42:58.896Z,9.66
2019-03-15T13:44:06.976Z,9.66
2019-03-15T13:45:16.548Z,9.67
2019-03-15T13:46:24.537Z,9.67
2019-03-15T13:47:32.418Z,9.70
2019-03-15T13:48:41.278Z,9.71
2019-03-15T13:49:49.153Z,9.71
2019-03-15T13:50:57.253Z,9.75
2019-03-15T13:52:05.236Z,9.75
2019-03-15T13:53:13.199Z,9.85
2019-03-15T13:54:21.159Z,9.91
2019-03-15T13:55:29.399Z,9.92
2019-03-15T13:56:37.323Z,9.88
2019-03-15T13:57:45.341Z,9.86
2019-03-15T13:58:57.500Z,9.92
2019-03-15T14:00:03.456Z,9.92
2019-03-15T14:01:11.467Z,9.93
2019-03-15T14:02:19.732Z,9.99
2019-03-15T14:03:28.041Z,10.01
2019-03-15T14:04:36.444Z,10.02
2019-03-15T14:05:44.501Z,10.00
2019-03-15T14:06:52.817Z,9.99
2019-03-15T14:08:11.220Z,9.99
2019-03-15T14:09:10.879Z,10.01
2019-03-15T14:10:19.306Z,9.99
2019-03-15T14:11:27.561Z,9.97
2019-03-15T14:12:35.593Z,9.99
2019-03-15T14:13:43.679Z,9.97
2019-03-15T14:14:51.850Z,9.97
2019-03-15T14:16:01.551Z,9.97
2019-03-15T14:17:09.988Z,9.99
2019-03-15T14:18:21.300Z,9.99
2019-03-15T14:19:27.856Z,10.02
2019-03-15T14:20:35.912Z,10.11
2019-03-15T14:21:43.836Z,10.09
2019-03-15T14:22:51.926Z,10.10
2019-03-15T14:24:00.099Z,10.09
2019-03-15T14:25:19.139Z,10.11
2019-03-15T14:26:27.073Z,10.09
2019-03-15T14:27:37.807Z,10.19
2019-03-15T14:28:47.567Z,10.18
2019-03-15T14:29:55.779Z,10.17
2019-03-15T14:31:04.290Z,10.17
2019-03-15T14:32:12.219Z,10.18
2019-03-15T14:33:20.165Z,10.24
2019-03-15T14:34:28.558Z,10.28
2019-03-15T14:35:36.868Z,10.32
2019-03-15T14:36:45.099Z,10.40
2019-03-15T14:37:53.597Z,10.44
2019-03-15T14:39:01.942Z,10.46
2019-03-15T14:40:12.978Z,10.51
2019-03-15T14:41:21.043Z,10.58
2019-03-15T14:42:29.554Z,10.62
2019-03-15T14:43:38.153Z,10.69
2019-03-15T14:44:46.123Z,10.70
2019-03-15T14:45:54.283Z,10.69
2019-03-15T14:47:02.536Z,10.68
2019-03-15T14:48:10.531Z,10.66
2019-03-15T14:49:18.547Z,10.63
2019-03-15T14:50:27.255Z,10.61
2019-03-15T14:51:35.252Z,10.56
2019-03-15T14:52:43.752Z,10.54
2019-03-15T14:53:51.728Z,10.51
2019-03-15T14:55:00.651Z,10.46
2019-03-15T14:56:08.548Z,10.46
2019-03-15T14:57:16.665Z,10.41
2019-03-15T14:58:24.951Z,10.40
2019-03-15T14:59:33.293Z,10.35
2019-03-15T15:00:41.851Z,10.33
2019-03-15T15:01:50.107Z,10.28
2019-03-15T15:02:58.150Z,10.27
2019-03-15T15:04:06.272Z,10.23
2019-03-15T15:05:14.535Z,10.21
2019-03-15T15:06:22.782Z,10.19
2019-03-15T15:07:31.259Z,10.23